Time;durP1;ratioP1;P1;durP2;ratioP2;P2;SDS_P1;SDS_P2;PMS_P1;PMS_P2;Temp;Humidity;BMP_temperature;BMP_pressure;BME280_temperature;BME280_humidity;BME280_pressure;Samples;Min_cycle;Max_cycle;Signal;HPM_P1;HPM_P2
2023/01/09 00:00:25;;;;;;;9.07;0.98;;;7.70;99.90;;;;;;5013162;28;20022;-48
2023/01/09 00:02:51;;;;;;;4.68;0.80;;;7.70;99.90;;;;;;5013118;28;20101;-46
2023/01/09 00:05:19;;;;;;;4.72;0.70;;;7.60;99.90;;;;;;5013111;28;20478;-47
2023/01/09 00:07:44;;;;;;;3.25;0.70;;;7.60;99.90;;;;;;5013265;28;20026;-52
2023/01/09 00:10:11;;;;;;;2.35;0.68;;;7.60;99.90;;;;;;5013152;28;20096;-52
2023/01/09 00:12:37;;;;;;;5.78;0.60;;;7.60;99.90;;;;;;5007935;28;20034;-46
2023/01/09 00:15:04;;;;;;;2.45;0.80;;;7.60;99.90;;;;;;5012932;28;20152;-46
2023/01/09 00:17:29;;;;;;;5.72;0.93;;;7.50;99.90;;;;;;5012844;28;20022;-50
2023/01/09 00:19:55;;;;;;;5.78;0.70;;;7.50;99.90;;;;;;5013112;28;20029;-46
2023/01/09 00:22:20;;;;;;;2.72;0.57;;;7.50;99.90;;;;;;5012772;28;20465;-48
2023/01/09 00:24:46;;;;;;;1.00;0.57;;;7.50;99.90;;;;;;5012707;28;20164;-46
2023/01/09 00:27:13;;;;;;;3.40;0.80;;;7.50;99.90;;;;;;5012552;28;20073;-48
2023/01/09 00:29:40;;;;;;;2.85;0.60;;;7.50;99.90;;;;;;5012692;28;20030;-49
2023/01/09 00:32:09;;;;;;;0.30;0.30;;;7.50;99.90;;;;;;5013007;28;20030;-47
2023/01/09 00:34:36;;;;;;;1.55;0.45;;;7.40;99.90;;;;;;5012665;28;20030;-46
2023/01/09 00:37:03;;;;;;;0.93;0.77;;;7.50;99.90;;;;;;5012495;28;20030;-46
2023/01/09 00:39:28;;;;;;;3.42;0.57;;;7.40;99.90;;;;;;5002486;28;20034;-53
2023/01/09 00:41:57;;;;;;;3.58;0.70;;;7.40;99.90;;;;;;5012592;28;20022;-50
2023/01/09 00:44:28;;;;;;;2.45;0.50;;;7.40;99.90;;;;;;5012458;28;20057;-51
2023/01/09 00:47:01;;;;;;;1.48;0.50;;;7.30;99.90;;;;;;5012546;28;20048;-51
2023/01/09 00:49:30;;;;;;;2.92;0.70;;;7.30;99.90;;;;;;5011597;28;20022;-51
2023/01/09 00:51:56;;;;;;;2.37;0.80;;;7.30;99.90;;;;;;5012241;28;20017;-48
2023/01/09 00:54:22;;;;;;;0.80;0.50;;;7.20;99.90;;;;;;5012315;28;20116;-46
2023/01/09 00:56:48;;;;;;;1.23;0.70;;;7.20;99.90;;;;;;5012010;28;20080;-47
2023/01/09 00:59:14;;;;;;;1.33;0.60;;;7.20;99.90;;;;;;5012282;28;20018;-46
2023/01/09 01:01:40;;;;;;;2.03;0.60;;;7.10;99.90;;;;;;5012022;28;20427;-48
2023/01/09 01:09:48;;;;;;;5.45;0.75;;;7.00;99.90;;;;;;5004661;28;20040;-45
2023/01/09 01:12:13;;;;;;;2.60;0.80;;;7.00;99.90;;;;;;5011865;28;20097;-46
2023/01/09 01:14:39;;;;;;;3.55;0.80;;;7.00;99.90;;;;;;5011853;28;20048;-47
2023/01/09 01:17:05;;;;;;;1.55;0.88;;;7.10;99.90;;;;;;4994247;28;20026;-45
2023/01/09 01:19:32;;;;;;;1.85;0.68;;;7.10;99.90;;;;;;5011861;28;20022;-47
2023/01/09 01:21:57;;;;;;;3.25;0.90;;;7.10;99.90;;;;;;5011668;28;20118;-45
2023/01/09 01:24:23;;;;;;;2.60;0.70;;;7.00;99.90;;;;;;4984361;28;20117;-47
2023/01/09 01:26:48;;;;;;;1.27;0.60;;;7.00;99.90;;;;;;5012062;28;20063;-48
2023/01/09 01:29:14;;;;;;;1.67;0.80;;;7.00;99.90;;;;;;5011871;28;20167;-46
2023/01/09 01:31:40;;;;;;;2.47;0.60;;;7.00;99.90;;;;;;5012015;28;20025;-47
2023/01/09 01:34:05;;;;;;;3.08;0.77;;;7.00;99.90;;;;;;5011837;28;20125;-48
2023/01/09 01:36:32;;;;;;;2.55;1.00;;;7.00;99.90;;;;;;5011479;28;20056;-52
2023/01/09 01:38:58;;;;;;;2.15;0.57;;;7.00;99.90;;;;;;4991280;28;20117;-46
2023/01/09 01:41:30;;;;;;;3.08;0.70;;;7.00;99.90;;;;;;4988713;28;20105;-47
2023/01/09 01:44:00;;;;;;;2.95;0.70;;;7.10;99.90;;;;;;4957382;28;20039;-46
2023/01/09 01:46:28;;;;;;;3.58;0.70;;;7.10;99.90;;;;;;4973988;28;20037;-53
2023/01/09 01:49:20;;;;;;;2.80;0.82;;;7.10;99.90;;;;;;4980549;28;20041;-47
2023/01/09 01:51:50;;;;;;;0.85;0.50;;;7.00;99.90;;;;;;4988131;28;20114;-48
2023/01/09 01:54:24;;;;;;;1.48;0.40;;;7.00;99.90;;;;;;4991753;28;20118;-50
2023/01/09 01:56:55;;;;;;;1.20;0.50;;;6.80;99.90;;;;;;4991564;28;20117;-53
2023/01/09 01:59:39;;;;;;;1.75;0.60;;;6.80;99.90;;;;;;4995847;28;20109;-51
2023/01/09 02:02:06;;;;;;;4.70;0.77;;;6.60;99.90;;;;;;4991483;28;20032;-53
2023/01/09 02:04:35;;;;;;;4.32;0.68;;;6.60;99.90;;;;;;4982293;28;20035;-49
2023/01/09 02:07:04;;;;;;;5.43;0.60;;;6.60;99.90;;;;;;4991344;28;20025;-52
2023/01/09 02:09:30;;;;;;;3.25;0.70;;;6.60;99.90;;;;;;4991129;28;20036;-50
2023/01/09 02:11:57;;;;;;;1.38;0.73;;;6.60;99.90;;;;;;4991080;28;20042;-47
2023/01/09 02:14:27;;;;;;;3.20;0.75;;;6.50;99.90;;;;;;4991519;28;20034;-52
2023/01/09 02:17:15;;;;;;;6.75;1.25;;;6.50;99.90;;;;;;4991335;28;20498;-49
2023/01/09 02:20:05;;;;;;;4.93;0.70;;;6.50;99.90;;;;;;4991159;28;20019;-50
2023/01/09 02:22:54;;;;;;;6.07;0.80;;;6.40;99.90;;;;;;4991098;28;20453;-45
2023/01/09 02:25:36;;;;;;;3.67;0.68;;;6.30;99.90;;;;;;4985219;28;20026;-47
2023/01/09 02:28:26;;;;;;;1.67;0.50;;;6.30;99.90;;;;;;4990935;28;20053;-47
2023/01/09 02:31:01;;;;;;;3.97;0.88;;;6.20;99.90;;;;;;4991227;28;20061;-49
2023/01/09 02:33:44;;;;;;;5.15;0.88;;;6.20;99.90;;;;;;4982045;28;20022;-46
2023/01/09 02:36:41;;;;;;;4.60;0.90;;;6.20;99.90;;;;;;4991819;28;20540;-49
2023/01/09 02:39:21;;;;;;;2.20;1.02;;;6.10;99.90;;;;;;5006007;28;20022;-47
2023/01/09 02:41:54;;;;;;;6.40;1.10;;;6.10;99.90;;;;;;5010637;28;20018;-50
2023/01/09 02:44:24;;;;;;;3.90;1.05;;;6.00;99.90;;;;;;5010694;28;20038;-45
2023/01/09 02:47:04;;;;;;;3.72;1.10;;;6.00;99.90;;;;;;5010624;28;20010;-48
2023/01/09 02:49:30;;;;;;;;;;;6.00;99.90;;;;;;5011018;28;20030;-54
2023/01/09 02:52:37;;;;;;;7.65;1.38;;;5.90;99.90;;;;;;5010594;28;19905;-50
2023/01/09 02:55:25;;;;;;;5.22;1.13;;;5.90;99.90;;;;;;4966832;28;20129;-48
2023/01/09 02:58:15;;;;;;;8.18;1.40;;;5.90;99.90;;;;;;5010510;28;20052;-45
2023/01/09 03:01:13;;;;;;;6.97;1.80;;;5.80;99.90;;;;;;4984646;28;20109;-49
2023/01/09 03:03:51;;;;;;;4.57;1.25;;;5.80;99.90;;;;;;4941947;28;20042;-50
2023/01/09 03:06:57;;;;;;;11.88;2.08;;;5.90;99.90;;;;;;5010568;28;20034;-47
2023/01/09 03:09:26;;;;;;;7.38;0.85;;;5.90;99.90;;;;;;4998981;28;20033;-48
2023/01/09 03:11:56;;;;;;;;;;;5.80;99.90;;;;;;4993418;28;20064;-49
2023/01/09 03:14:24;;;;;;;7.25;1.38;;;5.80;99.90;;;;;;5013988;28;19932;-49
2023/01/09 03:16:55;;;;;;;5.90;1.33;;;5.80;99.90;;;;;;5014374;28;20137;-48
2023/01/09 03:19:24;;;;;;;8.80;1.73;;;5.80;99.90;;;;;;5014290;28;20033;-45
2023/01/09 03:21:51;;;;;;;9.20;1.33;;;5.80;99.90;;;;;;5014057;28;20048;-46
2023/01/09 03:24:17;;;;;;;9.73;1.85;;;5.80;99.90;;;;;;5013665;28;20061;-48
2023/01/09 03:26:42;;;;;;;6.25;1.58;;;5.80;99.90;;;;;;5013970;28;20049;-45
2023/01/09 03:29:09;;;;;;;6.70;1.25;;;5.80;99.90;;;;;;5013428;28;20485;-46
2023/01/09 03:31:34;;;;;;;7.32;1.58;;;5.80;99.90;;;;;;5014053;28;20022;-48
2023/01/09 03:34:00;;;;;;;6.63;1.33;;;5.80;99.90;;;;;;5013647;28;20030;-47
2023/01/09 03:36:26;;;;;;;11.38;1.73;;;5.80;99.90;;;;;;5013701;28;20656;-49
2023/01/09 03:38:51;;;;;;;10.32;1.60;;;5.80;99.90;;;;;;5007074;28;20042;-47
2023/01/09 03:41:18;;;;;;;4.35;1.08;;;5.80;99.90;;;;;;5013455;28;20029;-45
2023/01/09 03:43:44;;;;;;;9.70;1.58;;;5.80;99.90;;;;;;5013561;28;20030;-48
2023/01/09 03:46:10;;;;;;;9.90;2.70;;;5.90;99.90;;;;;;5013649;28;20030;-49
2023/01/09 03:48:35;;;;;;;8.02;1.50;;;5.80;99.90;;;;;;5013354;28;20149;-49
2023/01/09 03:51:01;;;;;;;7.45;1.20;;;5.80;99.90;;;;;;5013461;28;20025;-47
2023/01/09 03:53:27;;;;;;;9.25;1.23;;;5.80;99.90;;;;;;5013206;28;20033;-54
2023/01/09 03:55:55;;;;;;;8.65;1.75;;;5.80;99.90;;;;;;5013352;28;20022;-48
2023/01/09 03:58:22;;;;;;;11.43;1.60;;;5.80;99.90;;;;;;5013288;28;20034;-45
2023/01/09 04:00:48;;;;;;;5.22;1.25;;;5.80;99.90;;;;;;5013263;28;20029;-53
2023/01/09 04:03:16;;;;;;;6.45;1.52;;;5.80;99.90;;;;;;5008064;28;20031;-46
2023/01/09 04:05:43;;;;;;;9.88;1.23;;;5.80;99.90;;;;;;4992758;28;20033;-48
2023/01/09 04:08:09;;;;;;;7.93;2.00;;;5.80;99.90;;;;;;4993050;28;20049;-46
2023/01/09 04:10:34;;;;;;;8.98;1.73;;;5.70;99.90;;;;;;4993500;28;20072;-45
2023/01/09 04:13:00;;;;;;;9.50;1.40;;;5.80;99.90;;;;;;4993174;28;20077;-45
2023/01/09 04:15:26;;;;;;;5.13;1.40;;;5.80;99.90;;;;;;4993291;28;20026;-52
2023/01/09 04:17:51;;;;;;;9.48;1.65;;;5.80;99.90;;;;;;4993429;28;20030;-48
2023/01/09 04:20:17;;;;;;;5.05;1.02;;;5.80;99.90;;;;;;4993302;28;20041;-45
2023/01/09 04:22:43;;;;;;;6.20;1.40;;;5.80;99.90;;;;;;4993148;28;20058;-45
2023/01/09 04:25:09;;;;;;;7.35;1.20;;;5.70;99.90;;;;;;4993382;28;20034;-46
2023/01/09 04:27:35;;;;;;;6.55;1.25;;;5.70;99.90;;;;;;4993566;28;20490;-45
2023/01/09 04:30:01;;;;;;;4.00;1.10;;;5.70;99.90;;;;;;4994122;28;20089;-47
2023/01/09 04:32:27;;;;;;;7.85;1.10;;;5.70;99.90;;;;;;4993593;28;20023;-50
2023/01/09 04:34:54;;;;;;;7.65;1.63;;;5.70;99.90;;;;;;4993169;28;20134;-55
2023/01/09 04:37:20;;;;;;;9.35;1.33;;;5.70;99.90;;;;;;4992655;28;20026;-51
2023/01/09 04:39:46;;;;;;;6.00;1.30;;;5.60;99.90;;;;;;4992877;28;20019;-52
2023/01/09 04:42:12;;;;;;;8.88;1.00;;;5.60;99.90;;;;;;4993180;28;20022;-50
2023/01/09 04:44:37;;;;;;;10.82;1.15;;;5.50;99.90;;;;;;4992719;28;20038;-51
2023/01/09 04:47:03;;;;;;;6.97;1.50;;;5.50;99.90;;;;;;4992959;28;20125;-46
2023/01/09 04:49:29;;;;;;;6.70;1.30;;;5.50;99.90;;;;;;4992707;28;20086;-48
2023/01/09 04:51:55;;;;;;;8.50;1.27;;;5.50;99.90;;;;;;4992812;28;20481;-46
2023/01/09 04:54:20;;;;;;;4.35;1.05;;;5.60;99.90;;;;;;4992654;28;20521;-49
2023/01/09 04:56:46;;;;;;;6.32;1.30;;;5.60;99.90;;;;;;4992565;28;20104;-51
2023/01/09 04:59:12;;;;;;;6.85;1.67;;;5.70;99.90;;;;;;4992750;28;20457;-50
2023/01/09 05:01:38;;;;;;;6.63;1.67;;;5.70;99.90;;;;;;4992565;28;20026;-47
2023/01/09 05:04:04;;;;;;;10.45;1.40;;;5.60;99.90;;;;;;4992448;28;20136;-51
2023/01/09 05:06:30;;;;;;;5.55;1.17;;;5.60;99.90;;;;;;4992084;28;20030;-49
2023/01/09 05:08:57;;;;;;;10.43;1.60;;;5.60;99.90;;;;;;4992137;28;20031;-45
2023/01/09 05:11:24;;;;;;;10.93;1.40;;;5.60;99.90;;;;;;4992492;28;20026;-47
2023/01/09 05:13:50;;;;;;;8.98;1.30;;;5.60;99.90;;;;;;4992413;28;20034;-50
2023/01/09 05:16:16;;;;;;;8.13;1.60;;;5.60;99.90;;;;;;4992322;28;20026;-49
2023/01/09 05:18:42;;;;;;;6.45;1.10;;;5.60;99.90;;;;;;4992237;28;20100;-45
2023/01/09 05:21:07;;;;;;;10.50;1.75;;;5.50;99.90;;;;;;4992144;28;20025;-46
2023/01/09 05:23:33;;;;;;;8.88;1.40;;;5.50;99.90;;;;;;4991801;28;20054;-49
2023/01/09 05:25:59;;;;;;;9.50;1.67;;;5.50;99.90;;;;;;4992077;28;20533;-47
2023/01/09 05:28:24;;;;;;;9.45;1.42;;;5.50;99.90;;;;;;4991915;28;20417;-46
2023/01/09 05:30:50;;;;;;;12.95;2.20;;;5.50;99.90;;;;;;4992044;28;20022;-47
2023/01/09 05:33:16;;;;;;;9.27;1.50;;;5.50;99.90;;;;;;4992104;28;20374;-47
2023/01/09 05:35:41;;;;;;;8.80;1.40;;;5.60;99.90;;;;;;4991440;28;20041;-48
2023/01/09 05:38:07;;;;;;;17.10;1.50;;;5.70;99.90;;;;;;4991687;28;20101;-52
2023/01/09 05:40:32;;;;;;;10.40;1.38;;;5.70;99.90;;;;;;4991931;28;20045;-46
2023/01/09 05:42:58;;;;;;;6.55;1.40;;;5.80;99.90;;;;;;4991788;28;20034;-50
2023/01/09 05:45:24;;;;;;;7.18;1.67;;;5.80;99.90;;;;;;4991910;28;20158;-52
2023/01/09 05:47:49;;;;;;;11.45;1.40;;;5.80;99.90;;;;;;4991766;28;20488;-50
2023/01/09 05:50:15;;;;;;;16.75;1.48;;;5.90;99.90;;;;;;4991753;28;20034;-50
2023/01/09 05:52:40;;;;;;;9.15;1.60;;;5.80;99.90;;;;;;4991476;28;20030;-46
2023/01/09 05:55:07;;;;;;;9.93;1.52;;;5.90;99.90;;;;;;4991700;28;20077;-49
2023/01/09 05:57:32;;;;;;;11.75;1.55;;;5.90;99.90;;;;;;4991431;28;20088;-45
2023/01/09 05:59:58;;;;;;;12.32;1.40;;;6.00;99.90;;;;;;4974082;28;20030;-48
2023/01/09 06:02:24;;;;;;;18.38;1.50;;;5.90;99.90;;;;;;4991708;28;20101;-46
2023/01/09 06:04:49;;;;;;;6.65;1.25;;;6.00;99.90;;;;;;4991351;28;20470;-46
2023/01/09 06:07:15;;;;;;;8.30;1.10;;;5.90;99.90;;;;;;4991055;28;20092;-49
2023/01/09 06:09:41;;;;;;;8.82;1.27;;;6.00;99.90;;;;;;4991201;28;20037;-49
2023/01/09 06:12:06;;;;;;;5.50;1.10;;;6.00;99.90;;;;;;4991268;28;20105;-52
2023/01/09 06:14:32;;;;;;;10.75;1.70;;;6.00;99.90;;;;;;4991332;28;20030;-46
2023/01/09 06:16:58;;;;;;;6.38;1.60;;;5.90;99.90;;;;;;4991324;28;20069;-47
2023/01/09 06:19:24;;;;;;;7.07;1.10;;;5.90;99.90;;;;;;4991452;28;20084;-46
2023/01/09 06:21:50;;;;;;;11.50;1.70;;;6.00;99.90;;;;;;4991230;28;20054;-47
2023/01/09 06:24:15;;;;;;;9.02;1.25;;;6.00;99.90;;;;;;4991219;28;20394;-48
2023/01/09 06:26:41;;;;;;;5.88;1.85;;;6.10;99.90;;;;;;4991438;28;20402;-48
2023/01/09 06:29:07;;;;;;;8.82;1.52;;;6.10;99.90;;;;;;4990914;28;20486;-46
2023/01/09 06:31:33;;;;;;;6.95;1.23;;;6.10;99.90;;;;;;4991263;28;20026;-46
2023/01/09 06:33:59;;;;;;;5.00;1.20;;;6.10;99.90;;;;;;4991133;28;20106;-46
2023/01/09 06:36:25;;;;;;;11.65;1.63;;;6.10;99.90;;;;;;4990890;28;20061;-46
2023/01/09 06:38:50;;;;;;;9.05;1.20;;;6.10;99.90;;;;;;4991156;28;20025;-47
2023/01/09 06:41:16;;;;;;;10.52;2.33;;;6.20;99.90;;;;;;4991113;28;20355;-46
2023/01/09 06:43:42;;;;;;;7.40;1.88;;;6.10;99.90;;;;;;4991032;28;20038;-47
2023/01/09 06:46:08;;;;;;;7.88;1.40;;;6.20;99.90;;;;;;4990952;28;20034;-47
2023/01/09 06:48:33;;;;;;;6.60;1.10;;;6.20;99.90;;;;;;4993561;28;20026;-47
2023/01/09 06:50:59;;;;;;;8.63;1.13;;;6.10;99.90;;;;;;4994695;28;20033;-51
2023/01/09 06:53:25;;;;;;;7.97;1.50;;;6.10;99.90;;;;;;4995122;28;20022;-47
2023/01/09 06:55:51;;;;;;;6.65;1.33;;;6.10;99.90;;;;;;4994954;28;20565;-43
2023/01/09 06:58:17;;;;;;;6.63;1.55;;;6.00;99.90;;;;;;4994889;28;20026;-52
2023/01/09 07:00:42;;;;;;;6.97;1.30;;;6.00;99.90;;;;;;4994726;28;20400;-46
2023/01/09 07:03:09;;;;;;;5.88;1.20;;;6.00;99.90;;;;;;4994448;28;20029;-47
2023/01/09 07:05:39;;;;;;;5.07;1.40;;;6.10;99.90;;;;;;4994719;28;20037;-44
2023/01/09 07:08:05;;;;;;;5.82;1.08;;;6.00;99.90;;;;;;4994288;28;20019;-50
2023/01/09 07:10:31;;;;;;;7.20;1.33;;;6.10;99.90;;;;;;4994625;28;20022;-48
2023/01/09 07:12:56;;;;;;;14.07;1.55;;;6.10;99.90;;;;;;4994584;28;20101;-48
2023/01/09 07:15:22;;;;;;;4.50;1.00;;;6.20;99.90;;;;;;4994444;28;20702;-47
2023/01/09 07:17:50;;;;;;;12.80;1.48;;;6.10;99.90;;;;;;4994647;28;20026;-45
2023/01/09 07:20:16;;;;;;;11.57;1.70;;;6.10;99.90;;;;;;4994296;28;20022;-45
2023/01/09 07:22:43;;;;;;;10.93;1.40;;;6.10;99.90;;;;;;4994631;28;20114;-46
2023/01/09 07:25:08;;;;;;;5.80;1.27;;;6.10;99.90;;;;;;4961599;28;20117;-45
2023/01/09 07:27:34;;;;;;;11.00;1.40;;;6.10;99.90;;;;;;4995106;28;20521;-50
2023/01/09 07:29:59;;;;;;;6.10;1.40;;;6.10;99.90;;;;;;4995352;28;20029;-47
2023/01/09 07:32:25;;;;;;;6.85;1.50;;;6.10;99.90;;;;;;4992935;28;20034;-49
2023/01/09 07:34:51;;;;;;;9.45;1.55;;;6.10;99.90;;;;;;4994090;28;20116;-47
2023/01/09 07:37:17;;;;;;;8.88;1.30;;;6.10;99.90;;;;;;4990926;28;20022;-47
2023/01/09 07:39:42;;;;;;;8.48;1.20;;;6.00;99.90;;;;;;4994008;28;20385;-51
2023/01/09 07:42:08;;;;;;;6.18;1.40;;;6.00;99.90;;;;;;4993883;28;20023;-49
2023/01/09 07:44:34;;;;;;;8.80;1.40;;;5.90;99.90;;;;;;4993856;28;20097;-51
2023/01/09 07:46:59;;;;;;;7.30;1.42;;;5.90;99.90;;;;;;4993788;28;20113;-47
2023/01/09 07:49:25;;;;;;;4.28;1.88;;;5.90;99.90;;;;;;4993429;28;20402;-51
2023/01/09 07:51:50;;;;;;;7.03;1.55;;;5.80;99.90;;;;;;4985136;28;20029;-46
2023/01/09 07:54:16;;;;;;;6.65;1.30;;;5.80;99.90;;;;;;4993858;28;20026;-46
2023/01/09 07:56:42;;;;;;;9.45;1.38;;;5.80;99.90;;;;;;4993699;28;20074;-45
2023/01/09 07:59:07;;;;;;;9.30;1.73;;;5.80;99.90;;;;;;4993328;28;20026;-46
2023/01/09 08:01:33;;;;;;;16.40;1.67;;;5.80;99.90;;;;;;4993530;28;20109;-46
2023/01/09 08:03:59;;;;;;;9.32;1.50;;;5.90;99.90;;;;;;4993390;28;20038;-46
2023/01/09 08:06:25;;;;;;;11.20;2.15;;;5.90;99.90;;;;;;4993045;28;20021;-49
2023/01/09 08:08:50;;;;;;;10.40;1.83;;;5.80;99.90;;;;;;4993438;28;20081;-46
2023/01/09 08:11:16;;;;;;;9.10;1.80;;;5.80;99.90;;;;;;4993334;28;20506;-48
2023/01/09 08:13:41;;;;;;;6.10;1.30;;;5.80;99.90;;;;;;4993417;28;20072;-49
2023/01/09 08:16:07;;;;;;;9.88;1.73;;;5.80;99.90;;;;;;4993463;28;20022;-45
2023/01/09 08:18:33;;;;;;;10.68;2.15;;;5.80;99.90;;;;;;4987977;28;20033;-49
2023/01/09 08:20:59;;;;;;;9.30;1.90;;;5.80;99.90;;;;;;4993112;28;20430;-49
2023/01/09 08:23:24;;;;;;;7.95;1.92;;;5.80;99.90;;;;;;4993085;28;20035;-53
2023/01/09 08:25:52;;;;;;;9.43;1.35;;;5.80;99.90;;;;;;4993208;28;20054;-47
2023/01/09 08:28:17;;;;;;;10.95;1.23;;;5.80;99.90;;;;;;4986878;28;20045;-48
2023/01/09 08:30:43;;;;;;;11.52;1.73;;;5.70;99.90;;;;;;4992953;28;20113;-47
2023/01/09 08:33:08;;;;;;;2.78;1.02;;;5.70;99.90;;;;;;4992824;28;20445;-50
2023/01/09 08:35:35;;;;;;;10.23;1.70;;;5.70;99.90;;;;;;4992832;28;20037;-48
2023/01/09 08:38:01;;;;;;;7.90;1.23;;;5.70;99.90;;;;;;4992634;28;20385;-48
2023/01/09 08:40:27;;;;;;;5.03;0.80;;;5.70;99.90;;;;;;4992803;28;20097;-48
2023/01/09 08:48:20;;;;;;;7.30;1.25;;;5.70;99.90;;;;;;4992864;28;20037;-51
2023/01/09 08:50:46;;;;;;;7.30;1.40;;;6.00;99.90;;;;;;4992510;28;20038;-50
2023/01/09 08:53:12;;;;;;;6.88;1.40;;;6.20;99.90;;;;;;4992663;28;20031;-50
2023/01/09 08:55:38;;;;;;;7.22;1.60;;;6.50;99.90;;;;;;4992447;28;20393;-47
2023/01/09 08:58:04;;;;;;;8.68;1.20;;;7.10;99.90;;;;;;4992325;28;20027;-49
2023/01/09 09:00:29;;;;;;;9.30;1.30;;;7.90;99.90;;;;;;4991632;28;20023;-47
2023/01/09 09:02:57;;;;;;;4.60;0.90;;;8.60;99.90;;;;;;4987626;28;20080;-47
2023/01/09 09:05:25;;;;;;;6.13;1.60;;;9.40;99.90;;;;;;4991031;28;20034;-48
2023/01/09 09:07:53;;;;;;;8.15;1.30;;;9.90;99.90;;;;;;4980012;28;20027;-53
2023/01/09 09:10:20;;;;;;;7.82;1.25;;;9.50;99.90;;;;;;4978564;28;20117;-50
2023/01/09 09:12:50;;;;;;;6.05;1.30;;;8.80;99.90;;;;;;4990067;28;20022;-48
2023/01/09 09:15:22;;;;;;;8.35;1.30;;;8.10;99.90;;;;;;4987572;28;20026;-46
2023/01/09 09:17:54;;;;;;;6.85;1.40;;;7.70;99.90;;;;;;4990375;28;20536;-46
2023/01/09 09:20:25;;;;;;;7.13;1.35;;;7.30;99.90;;;;;;4985013;28;20026;-50
2023/01/09 09:22:50;;;;;;;8.45;2.13;;;7.20;99.90;;;;;;4991300;28;20037;-49
2023/01/09 09:25:17;;;;;;;8.88;1.25;;;7.20;99.90;;;;;;4991278;28;20022;-46
2023/01/09 09:27:43;;;;;;;8.93;1.40;;;7.20;99.90;;;;;;4990604;28;20564;-46
2023/01/09 09:30:10;;;;;;;5.88;1.85;;;7.20;99.90;;;;;;4991657;28;20022;-47
2023/01/09 09:32:37;;;;;;;11.60;1.70;;;7.30;99.90;;;;;;4991704;28;20022;-47
2023/01/09 09:35:03;;;;;;;6.55;1.52;;;7.30;99.90;;;;;;4988653;28;20032;-46
2023/01/09 09:37:29;;;;;;;7.65;1.40;;;7.50;99.90;;;;;;4991406;28;20042;-46
2023/01/09 09:39:55;;;;;;;7.10;1.42;;;7.70;99.90;;;;;;4991442;28;20037;-47
2023/01/09 09:45:26;;;;;;;5.97;1.15;;;7.90;99.90;;;;;;4985661;28;20081;-47
2023/01/09 09:48:19;;;;;;;7.07;1.60;;;7.80;99.90;;;;;;4985976;28;20546;-46
2023/01/09 09:51:15;;;;;;;9.95;1.52;;;7.80;99.90;;;;;;4986769;28;20504;-47
2023/01/09 09:54:00;;;;;;;10.80;1.70;;;7.80;99.90;;;;;;4984242;28;20023;-46
2023/01/09 09:56:30;;;;;;;5.68;1.20;;;7.80;99.90;;;;;;4985098;28;20047;-46
2023/01/09 09:59:02;;;;;;;4.03;1.10;;;7.80;99.90;;;;;;4979487;28;20053;-46
2023/01/09 10:01:48;;;;;;;5.80;1.08;;;7.70;99.90;;;;;;4976955;28;20031;-51
2023/01/09 10:04:17;;;;;;;4.28;1.02;;;7.80;99.90;;;;;;4959645;28;20046;-51
2023/01/09 10:06:46;;;;;;;6.80;1.90;;;7.80;99.90;;;;;;4988805;28;20397;-47
2023/01/09 10:09:48;;;;;;;6.33;1.10;;;7.90;99.90;;;;;;4986556;28;20049;-49
2023/01/09 10:12:26;;;;;;;9.23;1.33;;;8.10;99.90;;;;;;4976877;28;20324;-47
2023/01/09 10:14:53;;;;;;;8.68;1.60;;;8.40;99.90;;;;;;4983839;28;20053;-47
2023/01/09 10:17:21;;;;;;;8.88;1.25;;;8.70;99.90;;;;;;4990735;28;20030;-44
2023/01/09 10:20:18;;;;;;;4.47;1.15;;;8.90;99.90;;;;;;4988466;28;20019;-49
2023/01/09 10:23:15;;;;;;;7.57;0.93;;;8.90;99.90;;;;;;4988165;28;20073;-47
2023/01/09 10:25:45;;;;;;;8.15;1.40;;;8.70;99.90;;;;;;4989839;28;20053;-50
2023/01/09 10:28:19;;;;;;;9.38;1.15;;;8.60;99.90;;;;;;4991372;28;20042;-52
2023/01/09 10:30:48;;;;;;;10.70;1.15;;;8.50;99.90;;;;;;4987514;28;20496;-47
2023/01/09 10:33:47;;;;;;;6.25;1.60;;;8.50;99.90;;;;;;4987276;28;20019;-52
2023/01/09 10:36:51;;;;;;;5.38;1.20;;;8.50;99.90;;;;;;4985306;28;20026;-51
2023/01/09 10:39:31;;;;;;;8.07;1.40;;;8.40;99.90;;;;;;4990898;28;20018;-48
2023/01/09 10:42:06;;;;;;;6.07;1.45;;;8.40;99.90;;;;;;4990670;28;20030;-49
2023/01/09 10:44:58;;;;;;;7.85;1.38;;;8.40;99.90;;;;;;4990906;28;20482;-51
2023/01/09 10:47:31;;;;;;;4.13;1.20;;;8.30;99.90;;;;;;4985952;28;20445;-47
2023/01/09 10:49:58;;;;;;;9.15;1.67;;;8.40;99.90;;;;;;4990768;28;20022;-52
2023/01/09 10:52:38;;;;;;;8.70;1.88;;;9.10;99.90;;;;;;4990525;28;20054;-50
2023/01/09 10:55:13;;;;;;;6.72;1.52;;;10.10;99.90;;;;;;4990884;28;20030;-52
2023/01/09 10:57:41;;;;;;;7.45;1.25;;;10.10;99.90;;;;;;4990485;28;20486;-48
2023/01/09 11:00:20;;;;;;;5.28;1.30;;;9.80;99.90;;;;;;4991062;28;20094;-49
2023/01/09 11:02:46;;;;;;;6.50;1.20;;;9.50;99.90;;;;;;4990806;28;20026;-48
2023/01/09 11:05:20;;;;;;;6.35;1.45;;;9.20;99.90;;;;;;4990560;28;20042;-53
2023/01/09 11:07:54;;;;;;;5.57;1.00;;;8.90;99.90;;;;;;4990785;28;20038;-55
2023/01/09 11:10:20;;;;;;;5.78;1.17;;;8.80;99.90;;;;;;4973058;28;20390;-49
2023/01/09 11:12:46;;;;;;;4.93;1.55;;;8.70;99.90;;;;;;4990654;28;20105;-48
2023/01/09 11:15:15;;;;;;;7.50;1.40;;;8.70;99.90;;;;;;4987161;28;20033;-46
2023/01/09 11:17:42;;;;;;;9.85;1.85;;;8.80;99.90;;;;;;4987915;28;20486;-47
2023/01/09 11:20:28;;;;;;;7.32;1.40;;;9.90;99.90;;;;;;4982692;28;20073;-50
2023/01/09 11:22:57;;;;;;;5.80;1.42;;;11.70;99.90;;;;;;4982365;28;20470;-49
2023/01/09 11:25:25;;;;;;;5.03;1.23;;;12.50;99.90;;;;;;4986403;28;20089;-50
2023/01/09 11:28:00;;;;;;;5.32;2.13;;;12.00;99.90;;;;;;4979161;28;20050;-50
2023/01/09 11:30:26;;;;;;;10.88;2.35;;;11.10;99.90;;;;;;4984174;28;20133;-49
2023/01/09 11:32:57;;;;;;;5.78;1.70;;;10.50;99.90;;;;;;4989914;28;20029;-53
2023/01/09 11:35:31;;;;;;;7.65;2.10;;;9.90;99.90;;;;;;4993631;28;20027;-54
2023/01/09 11:38:17;;;;;;;7.63;1.55;;;9.50;99.90;;;;;;4993961;28;20022;-48
2023/01/09 11:40:50;;;;;;;5.50;1.50;;;9.10;99.90;;;;;;4988848;28;20033;-46
2023/01/09 11:43:17;;;;;;;6.82;1.13;;;9.00;99.90;;;;;;4981939;28;20037;-48
2023/01/09 11:45:57;;;;;;;6.63;1.40;;;9.10;99.90;;;;;;4989839;28;20042;-51
2023/01/09 11:48:53;;;;;;;6.60;1.65;;;9.10;99.90;;;;;;4993110;28;20034;-47
2023/01/09 11:51:34;;;;;;;8.45;2.10;;;9.20;99.90;;;;;;4993615;28;20031;-52
2023/01/09 11:54:14;;;;;;;8.70;2.15;;;9.50;99.90;;;;;;4993673;28;20026;-48
2023/01/09 11:56:41;;;;;;;7.13;2.33;;;10.20;99.90;;;;;;4992470;28;20474;-47
2023/01/09 11:59:12;;;;;;;9.85;1.27;;;11.30;99.90;;;;;;4978860;28;20053;-46
2023/01/09 12:02:06;;;;;;;8.63;1.23;;;11.70;99.90;;;;;;4975022;28;20061;-53
2023/01/09 12:04:52;;;;;;;5.50;1.40;;;11.70;99.90;;;;;;4981129;28;20046;-44
2023/01/09 12:07:21;;;;;;;6.32;1.30;;;12.20;99.90;;;;;;4992799;28;20092;-47
2023/01/09 12:09:55;;;;;;;4.85;1.20;;;14.00;99.90;;;;;;4992958;28;20093;-47
2023/01/09 12:12:40;;;;;;;3.20;1.20;;;15.40;99.90;;;;;;4989895;28;20076;-46
2023/01/09 12:15:26;;;;;;;4.88;1.58;;;16.20;96.40;;;;;;4987106;28;20023;-46
2023/01/09 12:18:28;;;;;;;3.80;1.30;;;14.80;94.90;;;;;;4974020;28;20113;-45
2023/01/09 12:21:06;;;;;;;1.85;0.77;;;14.10;96.50;;;;;;4991020;28;20034;-46
2023/01/09 12:24:14;;;;;;;2.65;1.17;;;15.30;96.40;;;;;;4992796;28;20030;-44
2023/01/09 12:26:53;;;;;;;6.32;1.80;;;17.10;92.50;;;;;;4992647;28;20029;-48
2023/01/09 12:29:38;;;;;;;5.13;1.77;;;17.70;91.20;;;;;;4991771;28;20057;-46
2023/01/09 12:32:22;;;;;;;3.67;1.15;;;18.50;85.00;;;;;;4992117;28;20273;-45
2023/01/09 12:35:02;;;;;;;3.65;1.17;;;16.50;85.70;;;;;;4978977;28;20023;-48
2023/01/09 12:37:49;;;;;;;4.22;1.10;;;15.10;90.30;;;;;;4990121;28;20038;-45
2023/01/09 12:40:14;;;;;;;5.07;1.00;;;13.80;92.40;;;;;;4992244;28;20049;-46
2023/01/09 12:42:57;;;;;;;4.78;1.10;;;13.50;93.10;;;;;;4992212;28;20054;-48
2023/01/09 12:45:30;;;;;;;5.32;1.20;;;12.80;94.30;;;;;;4988289;28;20106;-45
2023/01/09 12:48:23;;;;;;;3.08;0.85;;;12.00;95.00;;;;;;4974133;28;20406;-48
2023/01/09 12:50:58;;;;;;;3.28;0.80;;;11.90;96.90;;;;;;4988557;28;20033;-51
2023/01/09 12:53:37;;;;;;;6.80;1.00;;;11.50;96.70;;;;;;4991222;28;20026;-51
2023/01/09 12:56:07;;;;;;;7.45;0.90;;;11.50;97.60;;;;;;4989157;28;20153;-49
2023/01/09 12:58:49;;;;;;;5.55;0.90;;;11.60;97.40;;;;;;4988999;28;20035;-52
2023/01/09 13:01:38;;;;;;;3.63;0.80;;;12.30;96.70;;;;;;4989144;28;20482;-50
2023/01/09 13:04:10;;;;;;;8.05;1.25;;;12.20;95.10;;;;;;4992037;28;20465;-48
2023/01/09 13:06:40;;;;;;;1.92;0.73;;;11.80;95.80;;;;;;4992300;28;20418;-49
2023/01/09 13:09:28;;;;;;;4.13;0.70;;;11.20;96.20;;;;;;4992368;28;20058;-47
2023/01/09 13:12:15;;;;;;;5.05;0.80;;;11.00;97.80;;;;;;4992072;28;20394;-54
2023/01/09 13:15:03;;;;;;;3.30;0.80;;;11.90;96.30;;;;;;4999501;28;20026;-51
2023/01/09 13:17:37;;;;;;;3.92;0.95;;;13.00;94.90;;;;;;4978650;28;20077;-49
2023/01/09 13:20:15;;;;;;;3.30;1.17;;;13.50;92.40;;;;;;4983395;28;20054;-47
2023/01/09 13:22:46;;;;;;;6.53;2.40;;;13.00;92.50;;;;;;4990553;28;20088;-48
2023/01/09 13:25:34;;;;;;;7.57;3.00;;;12.00;93.50;;;;;;4986807;28;20042;-46
2023/01/09 13:28:12;;;;;;;11.98;4.68;;;11.60;94.60;;;;;;4987886;28;20042;-44